HCMF

Bosaso Airport

Bosaso, Somalia
METAR HCMF 171300Z 36011KT 9999 FEW026 SCT100 28/26 Q1008
Observed Flight Rules
Oct-17 @ 13:00 UTC (12 hours ago) Visual Flight Rules
Wind Visibility Clouds
360° at 11 knots 10,000+ meters
  • Few at 2,600' AGL
  • Scattered at 10,000' AGL
Temperatures Readings
Current 28°C / 82°F
Dewpoint 26°C / 79°F
Humidity 89%
Altimeter 29.76" Hg
Pressure 1008 hPa
Elevation 2
METAR HCMF 171300Z 36011KT 9999 FEW026 SCT100 28/26 Q1008
Observed Flight Rules
Oct-17 @ 13:00 UTC
(12 hours ago)
VFR
Wind Visibility
360° at 11 knots 10,000+ meters
Clouds
  • Few at 2,600' AGL
  • Scattered at 10,000' AGL
Temperature Dewpoint
28°C / 82°F 26°C / 79°F
Humidity Altimeter Pressure
89% 29.76" Hg 1008 hPa